createdAt,value
2023-07-16T00:00:35.337Z,19.46
2023-07-16T00:01:35.394Z,19.39
2023-07-16T00:02:35.317Z,19.39
2023-07-16T00:03:35.284Z,19.37
2023-07-16T00:04:35.311Z,19.37
2023-07-16T00:05:35.265Z,19.37
2023-07-16T00:06:35.256Z,19.36
2023-07-16T00:07:35.229Z,19.36
2023-07-16T00:08:35.229Z,19.36
2023-07-16T00:09:35.211Z,19.26
2023-07-16T00:10:35.213Z,19.13
2023-07-16T00:11:35.191Z,19.10
2023-07-16T00:12:35.193Z,19.08
2023-07-16T00:13:35.170Z,19.14
2023-07-16T00:14:35.171Z,19.13
2023-07-16T00:15:35.215Z,19.13
2023-07-16T00:16:35.202Z,19.16
2023-07-16T00:17:35.203Z,19.18
2023-07-16T00:18:35.131Z,19.21
2023-07-16T00:19:35.113Z,19.22
2023-07-16T00:20:35.099Z,19.25
2023-07-16T00:21:35.093Z,19.29
2023-07-16T00:22:35.162Z,19.31
2023-07-16T00:23:35.066Z,19.36
2023-07-16T00:24:35.060Z,19.37
2023-07-16T00:25:35.066Z,19.39
2023-07-16T00:26:35.036Z,19.40
2023-07-16T00:27:35.018Z,19.40
2023-07-16T00:28:35.047Z,19.43
2023-07-16T00:29:35.016Z,19.43
2023-07-16T00:30:35.000Z,19.44
2023-07-16T00:31:34.980Z,19.46
2023-07-16T00:32:35.015Z,19.47
2023-07-16T00:33:34.962Z,19.46
2023-07-16T00:34:34.975Z,19.47
2023-07-16T00:35:34.936Z,19.48
2023-07-16T00:36:34.935Z,19.47
2023-07-16T00:37:34.948Z,19.47
2023-07-16T00:38:34.912Z,19.48
2023-07-16T00:39:34.924Z,19.51
2023-07-16T00:40:34.922Z,19.54
2023-07-16T00:41:34.884Z,19.51
2023-07-16T00:42:34.865Z,19.48
2023-07-16T00:43:34.858Z,19.47
2023-07-16T00:44:34.841Z,19.47
2023-07-16T00:45:34.858Z,19.46
2023-07-16T00:46:34.858Z,19.47
2023-07-16T00:47:34.823Z,19.50
2023-07-16T00:48:34.801Z,19.50
2023-07-16T00:49:34.801Z,19.48
2023-07-16T00:50:34.798Z,19.47
2023-07-16T00:51:34.781Z,19.47
2023-07-16T00:52:34.766Z,19.50
2023-07-16T00:53:34.753Z,19.51
2023-07-16T00:54:34.743Z,19.55
2023-07-16T00:55:34.719Z,19.56
2023-07-16T00:56:34.759Z,19.55
2023-07-16T00:57:34.723Z,19.59
2023-07-16T00:58:34.700Z,19.59
2023-07-16T00:59:34.674Z,19.61
2023-07-16T01:00:34.668Z,19.62
2023-07-16T01:01:34.690Z,19.62
2023-07-16T01:02:34.752Z,19.62
2023-07-16T01:03:34.643Z,19.62
2023-07-16T01:04:34.719Z,19.62
2023-07-16T01:05:34.619Z,19.62
2023-07-16T01:06:34.713Z,19.62
2023-07-16T01:07:34.712Z,19.55
2023-07-16T01:08:34.604Z,19.47
2023-07-16T01:09:34.607Z,19.46
2023-07-16T01:10:34.583Z,19.43
2023-07-16T01:11:34.580Z,19.41
2023-07-16T01:12:34.550Z,19.44
2023-07-16T01:13:34.528Z,19.44
2023-07-16T01:14:34.530Z,19.43
2023-07-16T01:15:34.515Z,19.43
2023-07-16T01:16:34.603Z,19.41
2023-07-16T01:17:34.555Z,19.41
2023-07-16T01:18:34.472Z,19.43
2023-07-16T01:19:34.475Z,19.46
2023-07-16T01:20:34.461Z,19.44
2023-07-16T01:21:34.443Z,19.46
2023-07-16T01:22:34.491Z,19.46
2023-07-16T01:23:34.420Z,19.46
2023-07-16T01:24:34.411Z,19.44
2023-07-16T01:25:34.403Z,19.43
2023-07-16T01:26:34.388Z,19.44
2023-07-16T01:27:34.372Z,19.44
2023-07-16T01:28:34.379Z,19.43
2023-07-16T01:29:34.378Z,19.41
2023-07-16T01:30:34.351Z,19.41
2023-07-16T01:31:34.370Z,19.44
2023-07-16T01:32:34.410Z,19.44
2023-07-16T01:33:34.320Z,19.43
2023-07-16T01:34:34.385Z,19.41
2023-07-16T01:35:34.288Z,19.40
2023-07-16T01:36:34.295Z,19.37
2023-07-16T01:37:34.280Z,19.37
2023-07-16T01:38:34.279Z,19.33
2023-07-16T01:39:34.251Z,19.31
2023-07-16T01:40:34.245Z,19.28
2023-07-16T01:41:34.237Z,19.31
2023-07-16T01:42:34.208Z,19.29
2023-07-16T01:43:34.217Z,19.26
2023-07-16T01:44:34.232Z,19.21
2023-07-16T01:45:34.208Z,19.18
2023-07-16T01:46:34.198Z,19.16
2023-07-16T01:47:34.183Z,19.11
2023-07-16T01:48:34.150Z,19.10
2023-07-16T01:49:34.183Z,19.07
2023-07-16T01:50:34.128Z,19.02
2023-07-16T01:51:34.133Z,19.00
2023-07-16T01:52:34.107Z,19.00
2023-07-16T01:53:34.118Z,18.98
2023-07-16T01:54:34.081Z,18.95
2023-07-16T01:55:34.081Z,18.92
2023-07-16T01:56:34.069Z,18.90
2023-07-16T01:57:34.061Z,18.87
2023-07-16T01:58:34.081Z,18.84
2023-07-16T01:59:34.038Z,18.82
2023-07-16T02:00:34.021Z,18.84
2023-07-16T02:01:34.072Z,18.81
2023-07-16T02:02:34.133Z,18.81
2023-07-16T02:03:34.324Z,18.84
2023-07-16T02:04:33.976Z,18.85
2023-07-16T02:05:33.989Z,18.84
2023-07-16T02:06:33.954Z,18.84
2023-07-16T02:07:34.041Z,18.82
2023-07-16T02:08:33.942Z,18.82
2023-07-16T02:09:33.945Z,18.84
2023-07-16T02:10:33.921Z,18.84
2023-07-16T02:11:33.914Z,18.85
2023-07-16T02:12:33.923Z,18.84
2023-07-16T02:13:33.889Z,18.81
2023-07-16T02:14:33.891Z,18.81
2023-07-16T02:15:33.868Z,18.78
2023-07-16T02:16:33.938Z,18.76
2023-07-16T02:17:33.936Z,18.75
2023-07-16T02:18:33.853Z,18.73
2023-07-16T02:19:33.837Z,18.72
2023-07-16T02:20:33.806Z,18.67
2023-07-16T02:21:33.809Z,18.63
2023-07-16T02:22:33.852Z,18.58
2023-07-16T02:23:33.779Z,18.57
2023-07-16T02:24:33.776Z,18.55
2023-07-16T02:25:33.769Z,18.52
2023-07-16T02:26:33.760Z,18.51
2023-07-16T02:27:33.749Z,18.48
2023-07-16T02:28:33.730Z,18.47
2023-07-16T02:29:33.741Z,18.44
2023-07-16T02:30:33.695Z,18.42
2023-07-16T02:31:33.731Z,18.41
2023-07-16T02:32:33.752Z,18.42
2023-07-16T02:33:33.667Z,18.37
2023-07-16T02:34:33.681Z,18.39
2023-07-16T02:35:33.657Z,18.37
2023-07-16T02:36:33.646Z,18.39
2023-07-16T02:37:33.625Z,18.39
2023-07-16T02:38:33.609Z,18.41
2023-07-16T02:39:33.660Z,18.39
2023-07-16T02:40:33.592Z,18.39
2023-07-16T02:41:33.598Z,18.42
2023-07-16T02:42:33.574Z,18.41
2023-07-16T02:43:33.558Z,18.37
2023-07-16T02:44:33.551Z,18.33
2023-07-16T02:45:33.549Z,18.35
2023-07-16T02:46:33.585Z,18.35
2023-07-16T02:47:33.522Z,18.35
2023-07-16T02:48:33.509Z,18.33
2023-07-16T02:49:33.500Z,18.33
2023-07-16T02:50:33.475Z,18.35
2023-07-16T02:51:33.478Z,18.33
2023-07-16T02:52:33.470Z,18.33
2023-07-16T02:53:33.470Z,18.32
2023-07-16T02:54:33.456Z,18.30
2023-07-16T02:55:33.436Z,18.29
2023-07-16T02:56:33.425Z,18.26
2023-07-16T02:57:33.404Z,18.27
2023-07-16T02:58:33.445Z,18.29
2023-07-16T02:59:33.406Z,18.30
2023-07-16T03:00:33.394Z,18.30
2023-07-16T03:01:33.426Z,18.30
2023-07-16T03:02:33.478Z,18.33
2023-07-16T03:03:34.717Z,18.37
2023-07-16T03:04:33.496Z,18.37
2023-07-16T03:05:33.367Z,18.37
2023-07-16T03:06:33.324Z,18.37
2023-07-16T03:07:33.331Z,18.35
2023-07-16T03:08:33.295Z,18.35
2023-07-16T03:09:33.292Z,18.33
2023-07-16T03:10:33.279Z,18.33
2023-07-16T03:11:33.271Z,18.32
2023-07-16T03:12:33.314Z,18.30
2023-07-16T03:13:33.243Z,18.27
2023-07-16T03:14:33.184Z,18.27
2023-07-16T03:15:33.164Z,18.26
2023-07-16T03:16:33.240Z,18.23
2023-07-16T03:17:33.272Z,18.21
2023-07-16T03:18:33.197Z,18.21
2023-07-16T03:19:33.204Z,18.21
2023-07-16T03:20:33.181Z,18.23
2023-07-16T03:21:33.139Z,18.20
2023-07-16T03:22:33.126Z,18.18
2023-07-16T03:23:33.103Z,18.15
2023-07-16T03:24:33.113Z,18.12
2023-07-16T03:25:33.074Z,18.08
2023-07-16T03:26:33.057Z,18.07
2023-07-16T03:27:33.033Z,18.02
2023-07-16T03:28:33.037Z,17.99
2023-07-16T03:29:33.010Z,17.97
2023-07-16T03:30:33.020Z,17.97
2023-07-16T03:31:33.062Z,17.96
2023-07-16T03:32:50.241Z,17.93
2023-07-16T03:33:32.988Z,17.89
2023-07-16T03:34:32.966Z,17.93
2023-07-16T03:35:32.956Z,17.93
2023-07-16T03:36:32.955Z,17.90
2023-07-16T03:37:32.927Z,17.92
2023-07-16T03:38:32.902Z,17.92
2023-07-16T03:39:32.961Z,17.90
2023-07-16T03:40:32.887Z,17.92
2023-07-16T03:41:32.909Z,17.89
2023-07-16T03:42:32.880Z,17.86
2023-07-16T03:43:32.855Z,17.84
2023-07-16T03:44:32.845Z,17.84
2023-07-16T03:45:32.846Z,17.82
2023-07-16T03:46:32.833Z,17.86
2023-07-16T03:47:32.944Z,17.84
2023-07-16T03:48:32.820Z,17.82
2023-07-16T03:49:32.791Z,17.81
2023-07-16T03:50:32.802Z,17.81
2023-07-16T03:51:32.788Z,17.81
2023-07-16T03:52:32.803Z,17.78
2023-07-16T03:53:32.778Z,17.77
2023-07-16T03:54:32.731Z,17.74
2023-07-16T03:55:32.723Z,17.75
2023-07-16T03:56:32.708Z,17.75
2023-07-16T03:57:32.718Z,17.72
2023-07-16T03:58:32.696Z,17.75
2023-07-16T03:59:32.701Z,17.74
2023-07-16T04:00:32.680Z,17.74
2023-07-16T04:01:32.711Z,17.77
2023-07-16T04:02:32.670Z,17.77
2023-07-16T04:03:32.823Z,17.79
2023-07-16T04:04:32.639Z,17.79
2023-07-16T04:05:32.654Z,17.82
2023-07-16T04:06:32.609Z,17.82
2023-07-16T04:07:32.594Z,17.86
2023-07-16T04:08:32.588Z,17.87
2023-07-16T04:09:32.606Z,17.90
2023-07-16T04:10:32.590Z,17.89
2023-07-16T04:11:32.563Z,17.89
2023-07-16T04:12:32.552Z,17.89
2023-07-16T04:13:32.596Z,17.86
2023-07-16T04:14:32.514Z,17.84
2023-07-16T04:15:32.535Z,17.87
2023-07-16T04:16:32.586Z,17.90
2023-07-16T04:17:32.551Z,17.92
2023-07-16T04:18:32.546Z,17.93
2023-07-16T04:19:32.467Z,17.92
2023-07-16T04:20:32.513Z,17.93
2023-07-16T04:21:32.446Z,17.93
2023-07-16T04:22:32.478Z,17.92
2023-07-16T04:23:32.446Z,17.93
2023-07-16T04:24:32.408Z,17.90
2023-07-16T04:25:32.408Z,17.92
2023-07-16T04:26:32.394Z,17.92
2023-07-16T04:27:32.406Z,17.95
2023-07-16T04:28:32.400Z,17.95
2023-07-16T04:29:32.359Z,17.96
2023-07-16T04:30:32.368Z,17.96
2023-07-16T04:31:32.380Z,18.00
2023-07-16T04:32:32.334Z,17.99
2023-07-16T04:33:32.312Z,18.03
2023-07-16T04:34:32.320Z,18.05
2023-07-16T04:35:32.320Z,18.07
2023-07-16T04:36:32.308Z,18.08
2023-07-16T04:37:32.290Z,18.05
2023-07-16T04:38:32.273Z,18.07
2023-07-16T04:39:32.242Z,18.05
2023-07-16T04:40:32.237Z,18.05
2023-07-16T04:41:32.235Z,18.05
2023-07-16T04:42:32.222Z,18.05
2023-07-16T04:43:32.203Z,18.05
2023-07-16T04:44:32.211Z,18.05
2023-07-16T04:45:32.218Z,18.03
2023-07-16T04:46:32.260Z,18.07
2023-07-16T04:47:32.195Z,18.08
2023-07-16T04:48:32.169Z,18.08
2023-07-16T04:49:32.127Z,18.08
2023-07-16T04:50:32.125Z,18.08
2023-07-16T04:51:32.115Z,18.11
2023-07-16T04:52:32.100Z,18.12
2023-07-16T04:53:32.109Z,18.11
2023-07-16T04:54:32.098Z,18.12
2023-07-16T04:55:32.078Z,18.11
2023-07-16T04:56:32.047Z,18.11
2023-07-16T04:57:32.052Z,18.12
2023-07-16T04:58:32.040Z,18.10
2023-07-16T04:59:32.048Z,18.12
2023-07-16T05:00:32.004Z,18.10
2023-07-16T05:01:32.728Z,18.11
2023-07-16T05:02:32.042Z,18.11
2023-07-16T05:03:32.057Z,18.11
2023-07-16T05:04:32.203Z,18.12
2023-07-16T05:05:31.973Z,18.14
2023-07-16T05:06:31.942Z,18.07
2023-07-16T05:07:31.983Z,18.07
2023-07-16T05:08:31.915Z,18.07
2023-07-16T05:09:31.936Z,18.07
2023-07-16T05:10:31.901Z,18.07
2023-07-16T05:11:31.945Z,18.05
2023-07-16T05:12:31.870Z,18.00
2023-07-16T05:13:31.887Z,18.02
2023-07-16T05:14:31.855Z,18.02
2023-07-16T05:15:31.850Z,18.03
2023-07-16T05:16:31.939Z,18.03
2023-07-16T05:17:31.961Z,18.07
2023-07-16T05:18:31.847Z,18.08
2023-07-16T05:19:31.840Z,18.05
2023-07-16T05:20:31.788Z,18.07
2023-07-16T05:21:31.844Z,18.07
2023-07-16T05:22:31.803Z,18.05
2023-07-16T05:23:31.787Z,18.03
2023-07-16T05:24:31.747Z,18.05
2023-07-16T05:25:32.870Z,18.05
2023-07-16T05:26:31.726Z,18.05
2023-07-16T05:27:31.760Z,18.07
2023-07-16T05:28:31.731Z,18.03
2023-07-16T05:29:31.699Z,18.05
2023-07-16T05:30:31.698Z,18.05
2023-07-16T05:31:31.800Z,18.05
2023-07-16T05:32:31.679Z,18.05
2023-07-16T05:33:31.661Z,18.05
2023-07-16T05:34:31.655Z,18.07
2023-07-16T05:35:31.631Z,18.10
2023-07-16T05:36:31.666Z,18.17
2023-07-16T05:37:31.624Z,18.21
2023-07-16T05:38:31.606Z,18.25
2023-07-16T05:39:31.604Z,18.26
2023-07-16T05:40:31.596Z,18.26
2023-07-16T05:41:31.569Z,18.29
2023-07-16T05:42:31.572Z,18.27
2023-07-16T05:43:31.552Z,18.30
2023-07-16T05:44:31.527Z,18.32
2023-07-16T05:45:31.530Z,18.36
2023-07-16T05:46:31.596Z,18.37
2023-07-16T05:47:31.528Z,18.42
2023-07-16T05:48:31.543Z,18.45
2023-07-16T05:49:31.481Z,18.47
2023-07-16T05:50:31.465Z,18.51
2023-07-16T05:51:31.506Z,18.52
2023-07-16T05:52:31.448Z,18.54
2023-07-16T05:53:31.456Z,18.57
2023-07-16T05:54:31.442Z,18.62
2023-07-16T05:55:31.424Z,18.65
2023-07-16T05:56:31.432Z,18.67
2023-07-16T05:57:31.395Z,18.69
2023-07-16T05:58:31.393Z,18.75
2023-07-16T05:59:31.400Z,18.78
2023-07-16T06:00:31.436Z,18.80
2023-07-16T06:01:31.381Z,18.81
2023-07-16T06:02:31.385Z,18.81
2023-07-16T06:03:31.352Z,18.82
2023-07-16T06:04:31.346Z,18.85
2023-07-16T06:05:31.316Z,18.82
2023-07-16T06:06:31.287Z,18.84
2023-07-16T06:07:31.288Z,18.82
2023-07-16T06:08:31.261Z,18.84
2023-07-16T06:09:31.257Z,18.85
2023-07-16T06:10:31.257Z,18.85
2023-07-16T06:11:31.243Z,18.85
2023-07-16T06:12:31.255Z,18.87
2023-07-16T06:13:31.238Z,18.88
2023-07-16T06:14:31.234Z,18.90
2023-07-16T06:15:31.198Z,18.84
2023-07-16T06:16:31.238Z,18.84
2023-07-16T06:17:31.217Z,18.84
2023-07-16T06:18:31.160Z,18.81
2023-07-16T06:19:31.167Z,18.84
2023-07-16T06:20:31.140Z,18.82
2023-07-16T06:21:31.127Z,18.78
2023-07-16T06:22:31.142Z,18.80
2023-07-16T06:23:31.121Z,18.81
2023-07-16T06:24:31.094Z,18.84
2023-07-16T06:25:31.083Z,18.88
2023-07-16T06:26:31.071Z,18.91
2023-07-16T06:27:31.093Z,18.95
2023-07-16T06:28:31.073Z,18.98
2023-07-16T06:29:31.054Z,19.00
2023-07-16T06:30:31.027Z,18.99
2023-07-16T06:31:31.055Z,19.04
2023-07-16T06:32:31.074Z,19.06
2023-07-16T06:33:30.992Z,19.06
2023-07-16T06:34:31.005Z,19.07
2023-07-16T06:35:31.002Z,19.08
2023-07-16T06:36:30.989Z,19.14
2023-07-16T06:37:30.984Z,19.13
2023-07-16T06:38:30.944Z,19.18
2023-07-16T06:39:30.940Z,19.14
2023-07-16T06:40:30.923Z,19.16
2023-07-16T06:41:30.912Z,19.21
2023-07-16T06:42:30.899Z,19.23
2023-07-16T06:43:30.907Z,19.28
2023-07-16T06:44:30.877Z,19.26
2023-07-16T06:45:33.665Z,19.29
2023-07-16T06:46:30.913Z,19.29
2023-07-16T06:47:30.883Z,19.28
2023-07-16T06:48:30.856Z,19.22
2023-07-16T06:49:30.829Z,19.19
2023-07-16T06:50:30.818Z,19.18
2023-07-16T06:51:30.824Z,19.13
2023-07-16T06:52:30.827Z,19.00
2023-07-16T06:53:30.800Z,18.95
2023-07-16T06:54:30.852Z,18.94
2023-07-16T06:55:30.759Z,18.94
2023-07-16T06:56:30.759Z,18.88
2023-07-16T06:57:30.743Z,18.88
2023-07-16T06:58:30.751Z,18.88
2023-07-16T06:59:30.726Z,18.90
2023-07-16T07:00:30.746Z,18.88
2023-07-16T07:01:30.873Z,18.87
2023-07-16T07:02:30.706Z,18.88
2023-07-16T07:03:30.826Z,18.87
2023-07-16T07:04:30.737Z,18.90
2023-07-16T07:05:30.661Z,18.91
2023-07-16T07:06:30.647Z,18.92
2023-07-16T07:07:30.714Z,18.94
2023-07-16T07:08:30.623Z,18.91
2023-07-16T07:09:30.630Z,18.92
2023-07-16T07:10:30.626Z,18.95
2023-07-16T07:11:30.588Z,19.00
2023-07-16T07:12:30.584Z,19.04
2023-07-16T07:13:30.633Z,19.06
2023-07-16T07:14:30.562Z,19.07
2023-07-16T07:15:30.543Z,19.10
2023-07-16T07:16:30.573Z,19.16
2023-07-16T07:17:30.571Z,19.26
2023-07-16T07:18:30.540Z,19.36
2023-07-16T07:19:30.522Z,19.44
2023-07-16T07:20:30.499Z,19.55
2023-07-16T07:21:30.491Z,19.63
2023-07-16T07:22:30.573Z,19.68
2023-07-16T07:23:30.692Z,19.65
2023-07-16T07:24:30.453Z,19.61
2023-07-16T07:25:30.478Z,19.59
2023-07-16T07:26:30.435Z,19.55
2023-07-16T07:27:30.436Z,19.54
2023-07-16T07:28:30.417Z,19.54
2023-07-16T07:29:30.390Z,19.54
2023-07-16T07:30:30.415Z,19.54
2023-07-16T07:31:30.377Z,19.55
2023-07-16T07:32:30.397Z,19.56
2023-07-16T07:33:30.358Z,19.51
2023-07-16T07:34:30.356Z,19.48
2023-07-16T07:35:30.328Z,19.41
2023-07-16T07:36:30.316Z,19.39
2023-07-16T07:37:30.300Z,19.37
2023-07-16T07:38:30.338Z,19.39
2023-07-16T07:39:30.285Z,19.41
2023-07-16T07:40:30.320Z,19.50
2023-07-16T07:41:30.276Z,19.56
2023-07-16T07:42:31.194Z,19.62
2023-07-16T07:43:30.241Z,19.68
2023-07-16T07:44:30.249Z,19.76
2023-07-16T07:45:30.231Z,19.80
2023-07-16T07:46:30.259Z,19.83
2023-07-16T07:47:30.262Z,19.84
2023-07-16T07:48:30.190Z,19.87
2023-07-16T07:49:30.185Z,19.86
2023-07-16T07:50:30.175Z,19.86
2023-07-16T07:51:30.164Z,19.86
2023-07-16T07:52:30.161Z,19.87
2023-07-16T07:53:30.166Z,19.81
2023-07-16T07:54:30.131Z,19.74
2023-07-16T07:55:30.176Z,19.69
2023-07-16T07:56:30.110Z,19.66
2023-07-16T07:57:30.084Z,19.65
2023-07-16T07:58:30.084Z,19.69
2023-07-16T07:59:30.084Z,19.74
2023-07-16T08:00:30.080Z,19.77
2023-07-16T08:01:30.064Z,19.78
2023-07-16T08:02:30.117Z,19.80
2023-07-16T08:03:30.123Z,19.78
2023-07-16T08:04:30.077Z,19.78
2023-07-16T08:05:30.054Z,19.80
2023-07-16T08:06:29.998Z,19.81
2023-07-16T08:07:29.979Z,19.84
2023-07-16T08:08:30.010Z,19.86
2023-07-16T08:09:29.963Z,19.91
2023-07-16T08:10:29.968Z,19.98
2023-07-16T08:11:29.944Z,19.99
2023-07-16T08:12:29.945Z,20.02
2023-07-16T08:13:29.935Z,19.98
2023-07-16T08:14:29.929Z,19.99
2023-07-16T08:15:29.899Z,19.99
2023-07-16T08:16:29.906Z,20.02
2023-07-16T08:17:29.983Z,20.06
2023-07-16T08:18:29.900Z,20.13
2023-07-16T08:19:29.892Z,20.16
2023-07-16T08:20:29.870Z,20.23
2023-07-16T08:21:29.835Z,20.29
2023-07-16T08:22:29.875Z,20.31
2023-07-16T08:23:29.821Z,20.41
2023-07-16T08:24:29.825Z,20.48
2023-07-16T08:25:29.785Z,20.52
2023-07-16T08:26:29.783Z,20.59
2023-07-16T08:27:29.771Z,20.64
2023-07-16T08:28:29.773Z,20.66
2023-07-16T08:29:29.758Z,20.67
2023-07-16T08:30:29.749Z,20.64
2023-07-16T08:31:29.818Z,20.61
2023-07-16T08:32:29.772Z,20.52
2023-07-16T08:33:29.709Z,20.39
2023-07-16T08:34:29.708Z,20.33
2023-07-16T08:35:29.710Z,20.33
2023-07-16T08:36:29.694Z,20.32
2023-07-16T08:37:29.663Z,20.39
2023-07-16T08:38:29.654Z,20.43
2023-07-16T08:39:29.648Z,20.50
2023-07-16T08:40:29.646Z,20.54
2023-07-16T08:41:29.637Z,20.62
2023-07-16T08:42:29.613Z,20.73
2023-07-16T08:43:29.599Z,20.80
2023-07-16T08:44:29.590Z,20.88
2023-07-16T08:45:29.617Z,20.97
2023-07-16T08:46:29.646Z,21.04
2023-07-16T08:47:29.612Z,21.13
2023-07-16T08:48:29.558Z,21.14
2023-07-16T08:49:29.547Z,21.13
2023-07-16T08:50:32.405Z,21.27
2023-07-16T08:51:29.508Z,21.21
2023-07-16T08:52:29.559Z,21.21
2023-07-16T08:53:29.500Z,21.29
2023-07-16T08:54:29.482Z,21.28
2023-07-16T08:55:29.496Z,21.40
2023-07-16T08:56:29.463Z,21.43
2023-07-16T08:57:29.439Z,21.44
2023-07-16T08:58:29.446Z,21.42
2023-07-16T08:59:29.438Z,21.37
2023-07-16T09:00:29.424Z,21.37
2023-07-16T09:01:29.419Z,21.32
2023-07-16T09:02:29.456Z,21.25
2023-07-16T09:03:29.379Z,21.16
2023-07-16T09:04:29.386Z,21.04
2023-07-16T09:05:39.655Z,20.97
2023-07-16T09:06:29.448Z,20.94
2023-07-16T09:07:29.340Z,20.89
2023-07-16T09:08:29.349Z,20.88
2023-07-16T09:09:29.320Z,20.89
2023-07-16T09:10:29.357Z,20.85
2023-07-16T09:11:29.294Z,20.76
2023-07-16T09:12:29.275Z,20.76
2023-07-16T09:13:29.410Z,20.74
2023-07-16T09:14:29.260Z,20.76
2023-07-16T09:15:29.267Z,20.76
2023-07-16T09:16:29.244Z,20.62
2023-07-16T09:17:29.296Z,20.54
2023-07-16T09:18:29.380Z,20.51
2023-07-16T09:19:29.232Z,20.54
2023-07-16T09:20:29.195Z,20.57
2023-07-16T09:21:29.181Z,20.59
2023-07-16T09:22:29.258Z,20.58
2023-07-16T09:23:29.171Z,20.58
2023-07-16T09:24:29.162Z,20.54
2023-07-16T09:25:29.146Z,20.55
2023-07-16T09:26:29.175Z,20.58
2023-07-16T09:27:29.116Z,20.66
2023-07-16T09:28:29.110Z,20.76
2023-07-16T09:29:29.117Z,20.82
2023-07-16T09:30:29.085Z,20.88
2023-07-16T09:31:29.106Z,20.92
2023-07-16T09:32:29.134Z,21.06
2023-07-16T09:33:29.051Z,21.24
2023-07-16T09:34:29.055Z,21.31
2023-07-16T09:35:29.037Z,21.38
2023-07-16T09:36:29.024Z,21.47
2023-07-16T09:37:29.089Z,21.54
2023-07-16T09:38:28.999Z,21.62
2023-07-16T09:39:29.226Z,21.65
2023-07-16T09:40:29.316Z,21.68
2023-07-16T09:41:29.148Z,21.74
2023-07-16T09:42:29.142Z,21.79
2023-07-16T09:43:29.033Z,21.83
2023-07-16T09:44:29.082Z,21.92
2023-07-16T09:45:29.031Z,22.00
2023-07-16T09:46:29.195Z,22.02
2023-07-16T09:47:29.037Z,22.09
2023-07-16T09:48:28.956Z,22.12
2023-07-16T09:49:28.955Z,22.17
2023-07-16T09:50:29.006Z,22.20
2023-07-16T09:51:29.986Z,22.22
2023-07-16T09:52:29.116Z,22.25
2023-07-16T09:53:29.286Z,22.31
2023-07-16T09:54:29.045Z,22.31
2023-07-16T09:55:28.897Z,22.31
2023-07-16T09:56:28.902Z,22.31
2023-07-16T09:57:28.891Z,22.43
2023-07-16T09:58:29.002Z,22.57
2023-07-16T09:59:28.913Z,22.64
2023-07-16T10:00:28.945Z,22.64
2023-07-16T10:01:28.838Z,22.64
2023-07-16T10:02:28.957Z,22.65
2023-07-16T10:03:28.848Z,22.67
2023-07-16T10:04:28.842Z,22.70
2023-07-16T10:05:28.855Z,22.73
2023-07-16T10:06:28.753Z,22.79
2023-07-16T10:07:28.884Z,22.82
2023-07-16T10:08:29.686Z,22.90
2023-07-16T10:09:28.772Z,22.95
2023-07-16T10:10:28.806Z,22.95
2023-07-16T10:11:28.736Z,22.98
2023-07-16T10:12:28.845Z,23.07
2023-07-16T10:13:28.716Z,23.12
2023-07-16T10:14:28.696Z,23.13
2023-07-16T10:15:28.800Z,23.19
2023-07-16T10:16:28.848Z,23.16
2023-07-16T10:17:28.766Z,23.10
2023-07-16T10:18:28.640Z,23.02
2023-07-16T10:19:28.595Z,22.97
2023-07-16T10:20:28.750Z,22.92
2023-07-16T10:21:28.548Z,22.77
2023-07-16T10:22:28.594Z,22.70
2023-07-16T10:23:28.517Z,22.64
2023-07-16T10:24:28.495Z,22.52
2023-07-16T10:25:28.480Z,22.39
2023-07-16T10:26:28.467Z,22.28
2023-07-16T10:27:28.457Z,22.24
2023-07-16T10:28:28.468Z,22.24
2023-07-16T10:29:28.448Z,22.22
2023-07-16T10:30:28.439Z,22.27
2023-07-16T10:31:28.497Z,22.39
2023-07-16T10:32:28.460Z,22.58
2023-07-16T10:33:28.405Z,22.62
2023-07-16T10:34:28.424Z,22.64
2023-07-16T10:35:28.443Z,22.65
2023-07-16T10:36:28.363Z,22.70
2023-07-16T10:37:28.405Z,22.82
2023-07-16T10:38:28.354Z,22.83
2023-07-16T10:39:28.343Z,22.95
2023-07-16T10:40:28.317Z,22.98
2023-07-16T10:41:28.330Z,23.00
2023-07-16T10:42:28.345Z,23.04
2023-07-16T10:43:28.288Z,22.91
2023-07-16T10:44:28.298Z,22.92
2023-07-16T10:45:28.278Z,22.94
2023-07-16T10:46:28.332Z,22.92
2023-07-16T10:47:28.315Z,22.97
2023-07-16T10:48:28.238Z,22.98
2023-07-16T10:49:28.232Z,23.02
2023-07-16T10:50:28.215Z,23.17
2023-07-16T10:51:28.209Z,23.16
2023-07-16T10:52:28.223Z,22.95
2023-07-16T10:53:28.204Z,22.94
2023-07-16T10:54:28.194Z,22.91
2023-07-16T10:55:28.167Z,22.91
2023-07-16T10:56:28.145Z,22.91
2023-07-16T10:57:28.143Z,22.85
2023-07-16T10:58:28.130Z,22.72
2023-07-16T10:59:28.119Z,22.72
2023-07-16T11:00:28.121Z,22.70
2023-07-16T11:01:28.160Z,22.70
2023-07-16T11:02:28.179Z,22.72
2023-07-16T11:03:28.198Z,22.80
2023-07-16T11:04:28.094Z,22.88
2023-07-16T11:05:28.063Z,23.07
2023-07-16T11:06:28.043Z,23.15
2023-07-16T11:07:28.044Z,23.17
2023-07-16T11:08:28.020Z,23.19
2023-07-16T11:09:28.045Z,23.16
2023-07-16T11:10:28.075Z,23.10
2023-07-16T11:11:28.001Z,22.92
2023-07-16T11:12:28.004Z,22.88
2023-07-16T11:13:28.551Z,22.82
2023-07-16T11:14:27.956Z,22.79
2023-07-16T11:15:27.952Z,22.82
2023-07-16T11:16:27.990Z,23.01
2023-07-16T11:17:27.985Z,23.13
2023-07-16T11:18:28.142Z,23.40
2023-07-16T11:19:27.924Z,23.51
2023-07-16T11:20:27.901Z,23.50
2023-07-16T11:21:27.896Z,23.47
2023-07-16T11:22:28.043Z,23.07
2023-07-16T11:23:27.914Z,22.95
2023-07-16T11:24:27.849Z,22.90
2023-07-16T11:25:27.855Z,22.86
2023-07-16T11:26:27.835Z,22.79
2023-07-16T11:27:27.847Z,22.75
2023-07-16T11:28:27.818Z,22.73
2023-07-16T11:29:27.801Z,22.76
2023-07-16T11:30:27.841Z,22.76
2023-07-16T11:31:27.796Z,22.72
2023-07-16T11:32:28.018Z,22.68
2023-07-16T11:33:27.853Z,22.70
2023-07-16T11:34:27.797Z,22.80
2023-07-16T11:35:27.829Z,22.95
2023-07-16T11:36:27.734Z,23.09
2023-07-16T11:37:27.757Z,23.17
2023-07-16T11:38:27.713Z,23.31
2023-07-16T11:39:27.761Z,23.51
2023-07-16T11:40:27.705Z,23.51
2023-07-16T11:41:27.683Z,23.46
2023-07-16T11:42:27.660Z,23.36
2023-07-16T11:43:27.660Z,23.31
2023-07-16T11:44:27.649Z,23.19
2023-07-16T11:45:28.021Z,23.09
2023-07-16T11:46:27.694Z,23.02
2023-07-16T11:47:27.709Z,22.95
2023-07-16T11:48:27.653Z,22.92
2023-07-16T11:49:27.592Z,23.00
2023-07-16T11:50:27.610Z,23.07
2023-07-16T11:51:27.580Z,23.16
2023-07-16T11:52:27.577Z,23.36
2023-07-16T11:53:27.554Z,23.42
2023-07-16T11:54:27.562Z,23.47
2023-07-16T11:55:27.542Z,23.47
2023-07-16T11:56:27.522Z,23.46
2023-07-16T11:57:29.865Z,23.42
2023-07-16T11:58:27.515Z,23.35
2023-07-16T11:59:27.513Z,23.25
2023-07-16T12:00:27.675Z,23.20
2023-07-16T12:01:27.511Z,23.22
2023-07-16T12:02:27.528Z,23.27
2023-07-16T12:03:27.581Z,23.31
2023-07-16T12:04:27.464Z,23.40
2023-07-16T12:05:41.618Z,23.54
2023-07-16T12:06:27.440Z,23.66
2023-07-16T12:07:27.400Z,23.79
2023-07-16T12:08:27.440Z,23.85
2023-07-16T12:09:27.394Z,23.94
2023-07-16T12:10:27.388Z,24.08
2023-07-16T12:11:27.377Z,24.06
2023-07-16T12:12:27.359Z,23.95
2023-07-16T12:13:27.390Z,23.90
2023-07-16T12:14:27.335Z,23.93
2023-07-16T12:15:27.322Z,24.06
2023-07-16T12:16:27.463Z,24.21
2023-07-16T12:17:27.516Z,24.42
2023-07-16T12:18:27.295Z,24.46
2023-07-16T12:19:27.289Z,24.43
2023-07-16T12:20:27.282Z,24.32
2023-07-16T12:21:27.290Z,24.27
2023-07-16T12:22:27.298Z,24.24
2023-07-16T12:23:27.269Z,24.18
2023-07-16T12:24:27.222Z,24.21
2023-07-16T12:25:27.218Z,24.24
2023-07-16T12:26:27.240Z,24.25
2023-07-16T12:27:27.313Z,24.30
2023-07-16T12:28:27.200Z,24.39
2023-07-16T12:29:27.191Z,24.55
2023-07-16T12:30:27.160Z,24.60
2023-07-16T12:31:27.243Z,24.53
2023-07-16T12:32:27.237Z,24.53
2023-07-16T12:33:27.154Z,24.55
2023-07-16T12:34:27.143Z,24.57
2023-07-16T12:35:27.124Z,24.55
2023-07-16T12:36:27.123Z,24.64
2023-07-16T12:37:27.103Z,24.84
2023-07-16T12:38:27.083Z,24.65
2023-07-16T12:39:27.116Z,24.30
2023-07-16T12:40:27.113Z,24.03
2023-07-16T12:41:27.057Z,23.98
2023-07-16T12:42:27.036Z,24.08
2023-07-16T12:43:27.053Z,24.13
2023-07-16T12:44:27.014Z,24.28
2023-07-16T12:45:27.011Z,24.40
2023-07-16T12:46:27.034Z,24.47
2023-07-16T12:47:27.039Z,24.42
2023-07-16T12:48:26.976Z,24.42
2023-07-16T12:49:27.015Z,24.43
2023-07-16T12:50:26.967Z,24.45
2023-07-16T12:51:26.958Z,24.39
2023-07-16T12:52:26.942Z,24.18